createdAt,value
2022-12-23T00:00:40.024Z,79.75
2022-12-23T00:03:23.517Z,70.47
2022-12-23T00:05:51.390Z,81.22
2022-12-23T00:08:19.004Z,72.10
2022-12-23T00:10:48.208Z,72.97
2022-12-23T00:13:33.897Z,70.32
2022-12-23T00:16:02.939Z,71.80
2022-12-23T00:18:29.796Z,73.57
2022-12-23T00:21:08.812Z,60.75
2022-12-23T00:23:38.705Z,69.65
2022-12-23T00:26:06.353Z,72.07
2022-12-23T00:28:33.549Z,74.20
2022-12-23T00:31:02.049Z,72.25
2022-12-23T00:33:34.381Z,68.07
2022-12-23T00:36:01.659Z,68.90
2022-12-23T00:38:47.486Z,56.15
2022-12-23T00:41:35.253Z,64.32
2022-12-23T00:44:02.973Z,64.30
2022-12-23T00:46:30.145Z,63.65
2022-12-23T00:49:15.866Z,57.53
2022-12-23T00:51:42.959Z,61.45
2022-12-23T00:54:09.779Z,55.90
2022-12-23T00:56:36.843Z,60.13
2022-12-23T00:59:04.017Z,62.72
2022-12-23T01:01:49.934Z,59.75
2022-12-23T01:04:36.150Z,52.15
2022-12-23T01:07:04.005Z,54.10
2022-12-23T01:09:30.957Z,52.55
2022-12-23T01:11:58.021Z,60.90
2022-12-23T01:14:25.432Z,49.72
2022-12-23T01:16:52.761Z,52.88
2022-12-23T01:19:19.612Z,54.38
2022-12-23T01:21:46.753Z,53.35
2022-12-23T01:24:13.566Z,45.40
2022-12-23T01:26:40.660Z,59.88
2022-12-23T01:29:07.492Z,52.65
2022-12-23T01:31:34.714Z,55.78
2022-12-23T01:34:01.555Z,54.42
2022-12-23T01:36:28.612Z,55.50
2022-12-23T01:38:56.499Z,55.92
2022-12-23T01:41:45.374Z,56.80
2022-12-23T01:44:46.204Z,54.83
2022-12-23T01:47:29.074Z,55.65
2022-12-23T01:50:08.269Z,63.38
2022-12-23T01:52:41.828Z,65.05
2022-12-23T01:55:09.192Z,59.75
2022-12-23T01:57:40.851Z,54.28
2022-12-23T02:00:27.553Z,59.22
2022-12-23T02:03:13.125Z,61.63
2022-12-23T02:05:40.650Z,62.80
2022-12-23T02:08:27.240Z,59.20
2022-12-23T02:11:15.479Z,63.45
2022-12-23T02:14:13.518Z,67.15
2022-12-23T02:16:49.827Z,65.43
2022-12-23T02:19:35.586Z,67.60
2022-12-23T02:22:29.662Z,75.80
2022-12-23T02:28:04.966Z,67.00
2022-12-23T02:31:00.739Z,74.43
2022-12-23T02:33:45.969Z,73.05
2022-12-23T02:36:18.658Z,76.50
2022-12-23T02:38:59.922Z,73.90
2022-12-23T02:41:38.422Z,79.32
2022-12-23T02:44:17.932Z,80.18
2022-12-23T02:46:56.923Z,74.45
2022-12-23T02:49:29.320Z,77.63
2022-12-23T02:51:59.562Z,78.40
2022-12-23T02:54:32.726Z,74.78
2022-12-23T02:57:03.996Z,76.35
2022-12-23T02:59:36.462Z,62.10
2022-12-23T03:02:03.632Z,76.88
2022-12-23T03:04:30.461Z,70.55
2022-12-23T03:07:02.815Z,83.88
2022-12-23T03:10:03.735Z,80.63
2022-12-23T03:12:33.562Z,80.32
2022-12-23T03:15:24.691Z,42.90
2022-12-23T03:18:06.376Z,102.82
2022-12-23T03:20:51.297Z,89.65
2022-12-23T03:23:29.840Z,44.97
2022-12-23T03:26:09.270Z,94.00
2022-12-23T03:29:05.737Z,92.10
2022-12-23T03:31:34.323Z,91.82
2022-12-23T03:34:06.466Z,76.78
2022-12-23T03:36:38.458Z,95.10
2022-12-23T03:39:10.630Z,109.13
2022-12-23T03:41:43.101Z,92.10
2022-12-23T03:44:15.558Z,56.20
2022-12-23T03:46:48.762Z,120.80
2022-12-23T03:49:20.734Z,65.38
2022-12-23T03:52:03.127Z,113.95
2022-12-23T03:54:54.565Z,54.13
2022-12-23T03:57:30.506Z,106.93
2022-12-23T03:59:57.653Z,117.22
2022-12-23T04:02:38.203Z,112.53
2022-12-23T04:05:14.440Z,82.35
2022-12-23T04:07:47.826Z,114.13
2022-12-23T04:10:15.408Z,130.18
2022-12-23T04:12:42.855Z,145.10
2022-12-23T04:15:13.134Z,105.82
2022-12-23T04:17:40.301Z,106.18
2022-12-23T04:20:07.981Z,86.32
2022-12-23T04:22:34.743Z,108.35
2022-12-23T04:25:01.834Z,115.47
2022-12-23T04:27:28.645Z,120.80
2022-12-23T04:29:55.707Z,110.60
2022-12-23T04:32:22.535Z,140.10
2022-12-23T04:34:49.601Z,137.30
2022-12-23T04:37:16.473Z,124.97
2022-12-23T04:39:43.521Z,101.97
2022-12-23T04:42:10.542Z,117.95
2022-12-23T04:44:37.591Z,104.55
2022-12-23T04:47:04.630Z,96.72
2022-12-23T04:49:32.063Z,81.15
2022-12-23T04:51:58.984Z,122.63
2022-12-23T04:54:26.034Z,115.45
2022-12-23T04:56:52.901Z,119.28
2022-12-23T04:59:19.968Z,129.55
2022-12-23T05:01:46.954Z,116.18
2022-12-23T05:04:14.315Z,142.63
2022-12-23T05:06:41.236Z,129.57
2022-12-23T05:09:08.297Z,130.45
2022-12-23T05:11:41.737Z,134.77
2022-12-23T05:14:12.740Z,127.38
2022-12-23T05:16:39.830Z,73.35
2022-12-23T05:19:07.073Z,97.10
2022-12-23T05:21:33.872Z,75.93
2022-12-23T05:24:01.121Z,129.68
2022-12-23T05:26:28.019Z,114.97
2022-12-23T05:28:55.554Z,81.55
2022-12-23T05:31:22.497Z,120.13
2022-12-23T05:33:49.715Z,87.22
2022-12-23T05:36:16.724Z,50.25
2022-12-23T05:38:43.871Z,119.90
2022-12-23T05:41:10.700Z,106.65
2022-12-23T05:43:37.767Z,77.10
2022-12-23T05:46:04.995Z,130.57
2022-12-23T05:48:32.089Z,100.60
2022-12-23T05:50:58.953Z,80.28
2022-12-23T05:53:26.175Z,93.50
2022-12-23T05:55:53.012Z,91.03
2022-12-23T05:58:20.063Z,92.30
2022-12-23T06:00:46.996Z,95.60
2022-12-23T06:03:14.204Z,75.75
2022-12-23T06:05:43.592Z,52.08
2022-12-23T06:08:10.765Z,34.72
2022-12-23T06:10:37.576Z,95.10
2022-12-23T06:13:04.817Z,78.72
2022-12-23T06:15:31.640Z,60.85
2022-12-23T06:17:58.796Z,56.80
2022-12-23T06:20:25.596Z,43.30
2022-12-23T06:22:52.833Z,67.32
2022-12-23T06:25:20.721Z,60.65
2022-12-23T06:27:47.851Z,77.57
2022-12-23T06:30:14.845Z,67.28
2022-12-23T06:32:41.956Z,55.08
2022-12-23T06:35:09.452Z,72.68
2022-12-23T06:37:36.708Z,75.50
2022-12-23T06:40:03.949Z,48.22
2022-12-23T06:42:31.173Z,78.00
2022-12-23T06:44:58.005Z,83.60
2022-12-23T06:47:25.078Z,77.45
2022-12-23T06:49:51.860Z,68.18
2022-12-23T06:52:18.918Z,82.57
2022-12-23T06:54:45.726Z,69.53
2022-12-23T06:57:12.853Z,83.20
2022-12-23T06:59:39.699Z,77.20
2022-12-23T07:02:06.930Z,82.78
2022-12-23T07:04:33.835Z,76.88
2022-12-23T07:07:00.897Z,22.92
2022-12-23T07:09:27.914Z,51.38
2022-12-23T07:11:55.001Z,62.30
2022-12-23T07:14:21.843Z,57.92
2022-12-23T07:16:48.992Z,73.15
2022-12-23T07:19:15.747Z,62.60
2022-12-23T07:21:43.320Z,64.97
2022-12-23T07:24:10.298Z,70.85
2022-12-23T07:26:37.424Z,66.07
2022-12-23T07:29:04.658Z,76.15
2022-12-23T07:31:31.925Z,33.55
2022-12-23T07:33:58.794Z,61.22
2022-12-23T07:36:25.884Z,52.13
2022-12-23T07:38:52.717Z,60.15
2022-12-23T07:41:19.837Z,68.75
2022-12-23T07:43:46.932Z,64.15
2022-12-23T07:46:14.068Z,42.15
2022-12-23T07:48:43.853Z,48.85
2022-12-23T07:51:11.277Z,27.83
2022-12-23T07:53:38.388Z,53.50
2022-12-23T07:56:05.971Z,40.70
2022-12-23T07:58:32.749Z,48.08
2022-12-23T08:01:06.195Z,58.97
2022-12-23T08:03:33.126Z,62.17
2022-12-23T08:06:02.378Z,72.18
2022-12-23T08:08:29.380Z,30.52
2022-12-23T08:10:58.872Z,63.92
2022-12-23T08:13:25.658Z,60.55
2022-12-23T08:15:59.802Z,61.20
2022-12-23T08:21:05.726Z,58.70
2022-12-23T08:23:33.477Z,46.65
2022-12-23T08:26:01.660Z,42.20
2022-12-23T08:28:28.987Z,43.95
2022-12-23T08:31:02.528Z,66.50
2022-12-23T08:33:29.389Z,41.13
2022-12-23T08:35:57.506Z,41.92
2022-12-23T08:38:24.335Z,27.48
2022-12-23T08:40:51.356Z,23.85
2022-12-23T08:43:18.198Z,21.65
2022-12-23T08:45:45.277Z,51.88
2022-12-23T08:48:12.894Z,51.75
2022-12-23T08:50:43.055Z,50.35
2022-12-23T08:53:10.721Z,51.42
2022-12-23T08:55:46.483Z,48.13
2022-12-23T08:58:14.944Z,56.38
2022-12-23T09:00:42.171Z,39.17
2022-12-23T09:03:09.157Z,51.38
2022-12-23T09:05:41.578Z,41.72
2022-12-23T09:08:09.295Z,68.78
2022-12-23T09:10:43.745Z,70.88
2022-12-23T09:13:13.895Z,58.88
2022-12-23T09:15:45.561Z,29.52
2022-12-23T09:18:12.524Z,35.15
2022-12-23T09:20:39.641Z,68.63
2022-12-23T09:23:06.809Z,58.20
2022-12-23T09:25:36.016Z,55.03
2022-12-23T09:28:04.009Z,55.53
2022-12-23T09:30:31.085Z,52.95
2022-12-23T09:32:57.878Z,56.60
2022-12-23T09:35:25.018Z,57.67
2022-12-23T09:37:51.805Z,27.15
2022-12-23T09:40:21.563Z,50.10
2022-12-23T09:43:33.613Z,45.08
2022-12-23T09:46:20.514Z,49.25
2022-12-23T09:48:56.707Z,39.08
2022-12-23T09:51:24.141Z,57.42
2022-12-23T09:54:11.995Z,65.65
2022-12-23T09:57:03.760Z,54.17
2022-12-23T10:00:07.702Z,44.40
2022-12-23T10:02:42.314Z,38.85
2022-12-23T10:05:15.257Z,37.40
2022-12-23T10:07:48.169Z,38.45
2022-12-23T10:10:32.987Z,52.42
2022-12-23T10:13:06.039Z,40.42
2022-12-23T10:15:47.668Z,32.47
2022-12-23T10:18:27.655Z,56.25
2022-12-23T10:21:03.014Z,24.23
2022-12-23T10:23:42.656Z,29.60
2022-12-23T10:26:32.356Z,34.20
2022-12-23T10:29:19.928Z,57.03
2022-12-23T10:32:24.587Z,52.85
2022-12-23T10:35:32.500Z,50.30
2022-12-23T10:38:02.186Z,53.85
2022-12-23T10:40:42.922Z,47.08
2022-12-23T10:43:37.957Z,26.65
2022-12-23T10:46:14.031Z,41.58
2022-12-23T10:48:58.883Z,58.63
2022-12-23T10:51:31.267Z,59.03
2022-12-23T10:54:06.933Z,52.25
2022-12-23T10:56:34.173Z,57.60
2022-12-23T10:59:01.671Z,68.18
2022-12-23T11:01:31.421Z,29.45
2022-12-23T11:04:17.197Z,42.83
2022-12-23T11:06:48.356Z,28.55
2022-12-23T11:09:20.909Z,41.78
2022-12-23T11:12:01.595Z,58.27
2022-12-23T11:14:46.750Z,68.00
2022-12-23T11:17:33.321Z,64.28
2022-12-23T11:20:20.237Z,54.70
2022-12-23T11:22:50.148Z,61.47
2022-12-23T11:25:40.403Z,55.58
2022-12-23T11:28:16.346Z,69.90
2022-12-23T11:31:08.673Z,69.65
2022-12-23T11:33:39.895Z,62.90
2022-12-23T11:36:13.671Z,56.45
2022-12-23T11:38:51.712Z,47.35
2022-12-23T11:41:22.364Z,31.95
2022-12-23T11:43:55.479Z,77.43
2022-12-23T11:46:30.870Z,67.15
2022-12-23T11:49:15.203Z,53.85
2022-12-23T11:51:48.043Z,56.25
2022-12-23T11:54:18.018Z,53.85
2022-12-23T11:56:47.846Z,61.80
2022-12-23T11:59:32.037Z,64.95
2022-12-23T12:02:20.257Z,63.17
2022-12-23T12:05:05.268Z,68.32
2022-12-23T12:07:33.312Z,53.15
2022-12-23T12:10:01.474Z,65.85
2022-12-23T12:12:29.609Z,44.05
2022-12-23T12:14:58.856Z,46.65
2022-12-23T12:17:34.244Z,60.72
2022-12-23T12:20:23.004Z,72.63
2022-12-23T12:22:56.460Z,63.00
2022-12-23T12:25:42.602Z,76.72
2022-12-23T12:28:14.815Z,67.95
2022-12-23T12:31:09.518Z,69.68
2022-12-23T12:33:43.196Z,61.78
2022-12-23T12:38:43.284Z,60.53
2022-12-23T12:41:23.361Z,29.95
2022-12-23T12:44:03.604Z,47.70
2022-12-23T12:46:32.855Z,72.72
2022-12-23T12:49:06.928Z,72.82
2022-12-23T12:51:43.335Z,56.67
2022-12-23T12:54:22.440Z,83.82
2022-12-23T12:56:55.505Z,72.28
2022-12-23T12:59:27.686Z,70.60
2022-12-23T13:02:09.696Z,78.75
2022-12-23T13:04:36.454Z,74.00
2022-12-23T13:07:19.028Z,80.80
2022-12-23T13:09:48.738Z,73.32
2022-12-23T13:12:46.281Z,74.05
2022-12-23T13:15:27.223Z,75.93
2022-12-23T13:18:13.547Z,77.72
2022-12-23T13:20:50.085Z,74.68
2022-12-23T13:23:42.917Z,67.65
2022-12-23T13:26:30.712Z,69.03
2022-12-23T13:29:05.114Z,69.97
2022-12-23T13:31:48.731Z,69.45
2022-12-23T13:34:47.941Z,68.18
2022-12-23T13:37:33.236Z,59.13
2022-12-23T13:40:09.838Z,73.72
2022-12-23T13:42:43.982Z,79.60
2022-12-23T13:45:17.303Z,68.40
2022-12-23T13:47:52.985Z,71.82
2022-12-23T13:50:31.926Z,81.85
2022-12-23T13:53:39.460Z,70.93
2022-12-23T13:56:15.692Z,63.38
2022-12-23T13:58:47.132Z,68.18
2022-12-23T14:01:14.187Z,72.50
2022-12-23T14:03:41.545Z,75.53
2022-12-23T14:06:43.679Z,84.93
2022-12-23T14:09:15.446Z,63.58
2022-12-23T14:11:45.046Z,69.97
2022-12-23T14:15:01.925Z,64.53
2022-12-23T14:17:45.433Z,62.65
2022-12-23T14:20:34.833Z,69.50
2022-12-23T14:23:34.951Z,69.38
2022-12-23T14:26:31.071Z,69.20
2022-12-23T14:29:06.578Z,72.60
2022-12-23T14:31:41.463Z,74.43
2022-12-23T14:34:17.521Z,69.60
2022-12-23T14:37:20.425Z,64.43
2022-12-23T14:39:49.022Z,59.10
2022-12-23T14:42:33.188Z,63.55
2022-12-23T14:45:28.056Z,63.95
2022-12-23T14:47:54.920Z,58.05
2022-12-23T14:50:38.604Z,65.13
2022-12-23T14:53:23.250Z,66.72
2022-12-23T14:56:09.590Z,61.75
2022-12-23T14:58:51.918Z,67.95
2022-12-23T15:02:00.454Z,58.77
2022-12-23T15:04:50.507Z,60.17
2022-12-23T15:07:32.166Z,57.53
2022-12-23T15:10:02.044Z,61.67
2022-12-23T15:12:41.136Z,65.00
2022-12-23T15:15:18.196Z,63.72
2022-12-23T15:17:45.960Z,63.33
2022-12-23T15:20:21.966Z,56.85
2022-12-23T15:22:50.380Z,67.43
2022-12-23T15:25:19.978Z,59.97
2022-12-23T15:27:47.354Z,62.88
2022-12-23T15:30:15.172Z,63.95
2022-12-23T15:32:44.398Z,63.88
2022-12-23T15:35:19.353Z,61.67
2022-12-23T15:37:50.110Z,63.13
2022-12-23T15:40:24.419Z,63.35
2022-12-23T15:42:51.617Z,71.22
2022-12-23T15:45:44.807Z,65.25
2022-12-23T15:48:31.014Z,61.10
2022-12-23T15:51:05.677Z,61.30
2022-12-23T15:53:40.377Z,61.35
2022-12-23T15:56:19.959Z,57.45
2022-12-23T15:58:47.600Z,65.90
2022-12-23T16:01:17.645Z,65.57
2022-12-23T16:03:52.059Z,55.13
2022-12-23T16:06:18.945Z,62.83
2022-12-23T16:09:17.152Z,63.40
2022-12-23T16:12:04.249Z,63.03
2022-12-23T16:14:35.020Z,51.75
2022-12-23T16:17:14.186Z,59.72
2022-12-23T16:19:46.225Z,63.10
2022-12-23T16:22:30.483Z,65.13
2022-12-23T16:25:06.240Z,74.35
2022-12-23T16:27:42.706Z,63.13
2022-12-23T16:30:41.930Z,58.47
2022-12-23T16:33:36.026Z,69.95
2022-12-23T16:36:24.780Z,58.30
2022-12-23T16:38:59.896Z,64.20
2022-12-23T16:41:26.995Z,62.75
2022-12-23T16:43:53.860Z,66.95
2022-12-23T16:46:23.358Z,60.65
2022-12-23T16:49:04.596Z,58.58
2022-12-23T16:51:34.336Z,53.72
2022-12-23T16:54:02.089Z,58.95
2022-12-23T16:56:37.257Z,55.17
2022-12-23T16:59:05.254Z,60.28
2022-12-23T17:01:35.115Z,55.33
2022-12-23T17:04:02.373Z,56.42
2022-12-23T17:06:30.660Z,58.47
2022-12-23T17:08:57.794Z,59.95
2022-12-23T17:11:24.816Z,60.55
2022-12-23T17:13:52.899Z,57.78
2022-12-23T17:16:24.444Z,67.13
2022-12-23T17:18:53.082Z,69.35
2022-12-23T17:21:33.089Z,55.97
2022-12-23T17:24:26.808Z,58.38
2022-12-23T17:26:55.283Z,67.97
2022-12-23T17:29:22.465Z,54.17
2022-12-23T17:31:50.792Z,56.15
2022-12-23T17:34:23.069Z,53.97
2022-12-23T17:36:51.129Z,45.35
2022-12-23T17:39:19.185Z,62.25
2022-12-23T17:41:46.608Z,62.88
2022-12-23T17:44:15.254Z,67.50
2022-12-23T17:46:42.568Z,55.90
2022-12-23T17:49:09.470Z,51.90
2022-12-23T17:51:39.349Z,53.55
2022-12-23T17:54:06.691Z,58.03
2022-12-23T17:56:33.824Z,58.83
2022-12-23T17:59:00.647Z,55.90
2022-12-23T18:01:30.683Z,63.75
2022-12-23T18:03:59.578Z,57.88
2022-12-23T18:06:28.711Z,57.60
2022-12-23T18:08:58.704Z,62.22
2022-12-23T18:11:39.072Z,61.67
2022-12-23T18:14:13.112Z,61.83
2022-12-23T18:16:40.190Z,48.75
2022-12-23T18:19:16.448Z,61.78
2022-12-23T18:21:43.770Z,62.20
2022-12-23T18:24:11.031Z,56.10
2022-12-23T18:26:38.173Z,63.80
2022-12-23T18:29:04.981Z,55.45
2022-12-23T18:31:32.553Z,63.90
2022-12-23T18:34:00.079Z,57.15
2022-12-23T18:36:33.280Z,60.35
2022-12-23T18:39:00.364Z,63.03
2022-12-23T18:41:28.032Z,55.65
2022-12-23T18:43:55.369Z,62.50
2022-12-23T18:46:22.749Z,57.10
2022-12-23T18:48:49.706Z,62.50
2022-12-23T18:51:19.401Z,61.58
2022-12-23T18:53:47.589Z,56.92
2022-12-23T18:56:17.137Z,62.20
2022-12-23T18:58:43.942Z,57.30
2022-12-23T19:01:12.847Z,79.43
2022-12-23T19:03:40.314Z,60.15
2022-12-23T19:06:08.871Z,60.35
2022-12-23T19:08:37.261Z,59.05
2022-12-23T19:11:17.241Z,58.90
2022-12-23T19:13:44.726Z,73.15
2022-12-23T19:16:15.230Z,56.65
2022-12-23T19:18:42.363Z,69.20
2022-12-23T19:21:10.730Z,63.65
2022-12-23T19:23:39.831Z,75.68
2022-12-23T19:26:09.354Z,58.53
2022-12-23T19:28:41.387Z,67.05
2022-12-23T19:31:11.094Z,79.47
2022-12-23T19:33:42.485Z,69.50
2022-12-23T19:36:17.036Z,74.53
2022-12-23T19:38:44.191Z,64.82
2022-12-23T19:41:14.401Z,64.60
2022-12-23T19:43:44.591Z,67.07
2022-12-23T19:46:13.092Z,69.18
2022-12-23T19:48:40.220Z,59.30
2022-12-23T19:51:10.179Z,64.63
2022-12-23T19:53:37.385Z,84.85
2022-12-23T19:56:06.877Z,77.75
2022-12-23T19:58:36.668Z,80.75
2022-12-23T20:01:11.626Z,77.18
2022-12-23T20:03:39.675Z,83.45
2022-12-23T20:06:12.287Z,73.80
2022-12-23T20:08:39.225Z,65.35
2022-12-23T20:11:08.435Z,76.00
2022-12-23T20:13:36.058Z,85.68
2022-12-23T20:16:03.928Z,77.07
2022-12-23T20:18:31.191Z,81.30
2022-12-23T20:20:58.725Z,65.93
2022-12-23T20:23:25.565Z,80.28
2022-12-23T20:25:52.745Z,78.78
2022-12-23T20:28:19.662Z,76.97
2022-12-23T20:30:48.344Z,71.22
2022-12-23T20:33:16.048Z,70.55
2022-12-23T20:35:43.160Z,70.72
2022-12-23T20:38:09.949Z,65.55
2022-12-23T20:40:37.031Z,66.47
2022-12-23T20:43:04.117Z,60.58
2022-12-23T20:45:31.279Z,58.90
2022-12-23T20:47:58.046Z,53.13
2022-12-23T20:50:25.101Z,59.35
2022-12-23T20:52:51.892Z,59.75
2022-12-23T20:55:18.988Z,60.92
2022-12-23T20:57:45.814Z,63.72
2022-12-23T21:00:13.525Z,63.30
2022-12-23T21:02:40.940Z,58.00
2022-12-23T21:05:08.553Z,51.88
2022-12-23T21:07:35.671Z,50.78
2022-12-23T21:10:03.352Z,51.45
2022-12-23T21:12:30.333Z,57.72
2022-12-23T21:14:57.450Z,60.35
2022-12-23T21:17:24.241Z,65.07
2022-12-23T21:19:51.369Z,56.58
2022-12-23T21:22:18.168Z,53.13
2022-12-23T21:24:45.235Z,53.08
2022-12-23T21:27:12.027Z,46.08
2022-12-23T21:29:39.157Z,46.35
2022-12-23T21:32:05.921Z,46.08
2022-12-23T21:34:32.988Z,49.75
2022-12-23T21:36:59.787Z,43.95
2022-12-23T21:39:27.346Z,51.17
2022-12-23T21:41:54.608Z,44.28
2022-12-23T21:44:21.728Z,52.45
2022-12-23T21:46:50.303Z,48.00
2022-12-23T21:49:18.146Z,47.70
2022-12-23T21:51:45.027Z,49.42
2022-12-23T21:54:12.769Z,56.30
2022-12-23T21:56:40.423Z,48.97
2022-12-23T21:59:16.332Z,54.47
2022-12-23T22:01:43.505Z,51.33
2022-12-23T22:04:10.961Z,52.03
2022-12-23T22:06:43.537Z,45.25
2022-12-23T22:09:13.353Z,55.50
2022-12-23T22:11:40.267Z,56.22
2022-12-23T22:14:10.346Z,52.13
2022-12-23T22:16:37.261Z,53.92
2022-12-23T22:19:06.234Z,53.25
2022-12-23T22:21:34.326Z,51.88
2022-12-23T22:24:02.207Z,44.17
2022-12-23T22:26:31.694Z,45.88
2022-12-23T22:29:01.296Z,48.28
2022-12-23T22:31:37.459Z,48.33
2022-12-23T22:34:05.677Z,41.95
2022-12-23T22:36:33.330Z,44.33
2022-12-23T22:39:01.761Z,47.83
2022-12-23T22:41:30.159Z,38.97
2022-12-23T22:43:58.398Z,40.67
2022-12-23T22:46:26.369Z,38.80
2022-12-23T22:48:54.167Z,42.00
2022-12-23T22:51:23.595Z,42.17
2022-12-23T22:53:50.667Z,42.90
2022-12-23T22:56:19.451Z,45.50
2022-12-23T22:58:47.284Z,45.05
2022-12-23T23:01:29.376Z,46.55
2022-12-23T23:03:59.310Z,42.13
2022-12-23T23:06:40.345Z,43.78
2022-12-23T23:09:10.160Z,42.08
2022-12-23T23:11:37.031Z,48.05
2022-12-23T23:14:04.647Z,36.75
2022-12-23T23:16:31.839Z,41.63
2022-12-23T23:18:59.963Z,45.85
2022-12-23T23:21:26.857Z,42.55
2022-12-23T23:23:54.024Z,40.60
2022-12-23T23:26:21.362Z,40.03
2022-12-23T23:28:48.881Z,38.08
2022-12-23T23:34:02.722Z,36.97
2022-12-23T23:36:29.608Z,41.55
2022-12-23T23:38:56.726Z,45.38
2022-12-23T23:41:24.272Z,40.67
2022-12-23T23:43:52.091Z,37.60
2022-12-23T23:46:19.179Z,38.65
2022-12-23T23:48:47.650Z,41.65
2022-12-23T23:51:14.625Z,43.83
2022-12-23T23:53:41.700Z,42.15
2022-12-23T23:56:09.328Z,39.72
2022-12-23T23:58:37.253Z,40.80
